Time;durP1;ratioP1;P1;durP2;ratioP2;P2;SDS_P1;SDS_P2;PMS_P1;PMS_P2;Temp;Humidity;BMP_temperature;BMP_pressure;BME280_temperature;BME280_humidity;BME280_pressure;Samples;Min_cycle;Max_cycle;Signal;HPM_P1;HPM_P2
2021/01/22 00:03:14;;;;;;;31.17;8.85;;;27.50;78.90;;;;;;6235662;22;20097;-93
2021/01/22 00:09:03;;;;;;;25.00;6.68;;;27.20;81.00;;;;;;6180316;23;20012;-88
2021/01/22 00:11:43;;;;;;;24.85;5.20;;;27.10;81.30;;;;;;6181100;22;20002;-89
2021/01/22 00:14:09;;;;;;;19.52;5.82;;;27.00;81.30;;;;;;6330533;22;20033;-88
2021/01/22 00:16:37;;;;;;;16.23;5.18;;;27.00;80.20;;;;;;6330345;22;19995;-89
2021/01/22 00:19:07;;;;;;;12.38;4.25;;;27.00;81.30;;;;;;6326348;22;19999;-89
2021/01/22 00:21:51;;;;;;;17.08;4.65;;;27.00;81.20;;;;;;6328606;22;19987;-90
2021/01/22 00:24:18;;;;;;;12.23;4.05;;;27.00;81.20;;;;;;6325998;22;19979;-86
2021/01/22 00:26:51;;;;;;;15.23;4.05;;;27.10;81.30;;;;;;6326569;22;19991;-89
2021/01/22 00:29:18;;;;;;;9.45;4.47;;;27.10;81.40;;;;;;6331204;22;20223;-88
2021/01/22 00:31:48;;;;;;;8.35;3.60;;;27.10;81.70;;;;;;6323921;22;19994;-89
2021/01/22 00:34:15;;;;;;;9.00;4.10;;;27.10;81.20;;;;;;6320047;22;19988;-88
2021/01/22 00:36:41;;;;;;;14.70;4.20;;;27.10;80.40;;;;;;6348303;22;19992;-87
2021/01/22 00:39:11;;;;;;;10.30;3.90;;;27.10;80.60;;;;;;6322962;22;20006;-89
2021/01/22 00:41:45;;;;;;;15.10;4.90;;;27.20;79.90;;;;;;6324249;22;20001;-89
2021/01/22 00:44:20;;;;;;;7.30;3.97;;;27.20;79.70;;;;;;6328300;22;19991;-89
2021/01/22 00:46:57;;;;;;;11.93;5.03;;;27.10;80.10;;;;;;6294589;22;20004;-89
2021/01/22 00:49:34;;;;;;;24.63;4.65;;;27.10;80.20;;;;;;6296423;22;20184;-91
2021/01/22 00:52:02;;;;;;;17.02;5.15;;;27.10;80.00;;;;;;6297762;22;20003;-89
2021/01/22 00:54:29;;;;;;;12.50;4.47;;;27.10;80.10;;;;;;6299845;22;19995;-90
2021/01/22 00:57:23;;;;;;;8.02;4.03;;;27.10;80.90;;;;;;6301273;22;20003;-89
2021/01/22 01:00:16;;;;;;;9.40;4.43;;;27.10;79.70;;;;;;6263255;22;19999;-90
2021/01/22 01:02:45;;;;;;;12.05;4.15;;;27.00;80.40;;;;;;6270843;22;19984;-92
2021/01/22 01:05:15;;;;;;;11.05;4.47;;;27.00;80.20;;;;;;6292743;22;20243;-89
2021/01/22 01:07:42;;;;;;;9.20;4.47;;;26.90;80.40;;;;;;6295060;22;20015;-90
2021/01/22 01:10:09;;;;;;;11.32;4.70;;;26.80;80.20;;;;;;6293437;22;20019;-89
2021/01/22 01:12:38;;;;;;;5.97;4.15;;;26.80;80.30;;;;;;6295870;22;20245;-88
2021/01/22 01:15:10;;;;;;;9.27;4.18;;;26.80;80.00;;;;;;6295807;22;20030;-88
2021/01/22 01:17:37;;;;;;;8.32;4.75;;;26.80;80.80;;;;;;6298528;22;20007;-88
2021/01/22 01:20:08;;;;;;;18.05;5.03;;;26.80;80.50;;;;;;6292323;22;19999;-91
2021/01/22 01:22:39;;;;;;;9.25;4.68;;;26.80;80.10;;;;;;6292717;22;20059;-92
2021/01/22 01:25:47;;;;;;;9.50;3.90;;;26.80;80.10;;;;;;6294438;22;19992;-91
2021/01/22 01:28:21;;;;;;;8.13;4.03;;;26.80;80.90;;;;;;6295567;22;20006;-89
2021/01/22 01:30:48;;;;;;;7.50;4.45;;;26.70;80.30;;;;;;6296973;22;19996;-91
2021/01/22 01:33:40;;;;;;;6.43;3.88;;;26.70;81.00;;;;;;6297668;22;20021;-91
2021/01/22 01:36:12;;;;;;;10.07;4.72;;;26.70;80.10;;;;;;6253499;22;20007;-90
2021/01/22 01:38:40;;;;;;;8.07;4.32;;;26.70;81.50;;;;;;6272131;22;20006;-88
2021/01/22 01:41:24;;;;;;;11.18;4.28;;;26.60;81.10;;;;;;6297420;22;20023;-92
2021/01/22 01:44:10;;;;;;;7.35;3.47;;;26.50;80.80;;;;;;6295757;22;20063;-88
2021/01/22 01:46:43;;;;;;;12.07;4.28;;;26.50;80.60;;;;;;6295703;22;20003;-92
2021/01/22 01:55:42;;;;;;;7.18;4.03;;;26.50;81.60;;;;;;6114069;23;20017;-90
2021/01/22 01:58:09;;;;;;;10.15;4.25;;;26.40;82.20;;;;;;6174407;23;20304;-92
2021/01/22 02:00:38;;;;;;;7.20;4.15;;;26.40;81.60;;;;;;6291975;22;20012;-90
2021/01/22 02:07:47;;;;;;;7.85;3.55;;;26.50;82.00;;;;;;6139424;23;20009;-91
2021/01/22 02:11:08;;;;;;;12.85;4.05;;;26.50;81.60;;;;;;6154596;23;20205;-91
2021/01/22 02:13:17;;;;;;;9.68;4.00;;;26.50;81.80;;;;;;6149412;23;20022;-92
2021/01/22 02:16:31;;;;;;;9.57;4.20;;;26.40;81.70;;;;;;6264945;22;20030;-93
2021/01/22 02:19:07;;;;;;;8.77;3.78;;;26.40;83.10;;;;;;6271262;22;20016;-92
2021/01/22 02:21:45;;;;;;;8.48;3.92;;;26.40;82.60;;;;;;6298128;22;20004;-91
2021/01/22 02:27:18;;;;;;;10.65;3.42;;;26.40;82.40;;;;;;6285280;22;20028;-93
2021/01/22 02:30:26;;;;;;;9.20;3.80;;;26.40;82.30;;;;;;6199579;23;19989;-93
2021/01/22 02:33:00;;;;;;;6.93;3.58;;;26.40;82.20;;;;;;6201905;23;20008;-89
2021/01/22 02:35:28;;;;;;;8.45;3.50;;;26.40;82.20;;;;;;6176682;23;19999;-90
2021/01/22 02:38:44;;;;;;;;;;;;;;;;;;;;;
2021/01/22 02:42:09;;;;;;;6.65;3.35;;;26.50;81.10;;;;;;6206599;23;20221;-89
2021/01/22 02:44:43;;;;;;;;;;;26.60;80.30;;;;;;6206692;23;20009;-91
2021/01/22 02:47:55;;;;;;;11.73;3.63;;;26.60;81.00;;;;;;6201677;23;19928;-93
2021/01/22 02:52:50;;;;;;;6.60;3.50;;;26.50;81.70;;;;;;6246764;23;20038;-91
2021/01/22 02:55:21;;;;;;;8.98;3.40;;;26.40;80.80;;;;;;6264573;23;20002;-91
2021/01/22 02:58:00;;;;;;;12.63;3.75;;;26.40;81.40;;;;;;6239543;23;19997;-91
2021/01/22 03:01:33;;;;;;;7.88;3.80;;;26.30;81.70;;;;;;6271579;23;19999;-89
2021/01/22 03:04:14;;;;;;;7.32;3.67;;;26.40;81.70;;;;;;6083001;23;20021;-92
2021/01/22 03:07:03;;;;;;;8.30;4.10;;;26.40;82.10;;;;;;6122749;23;20057;-93
2021/01/22 03:12:40;;;;;;;9.73;3.53;;;26.30;81.70;;;;;;6318399;22;20019;-90
2021/01/22 03:25:31;;;;;;;7.47;4.57;;;26.30;81.20;;;;;;6331274;22;20015;-89
2021/01/22 03:28:14;;;;;;;6.78;4.05;;;26.30;81.50;;;;;;6359407;22;20056;-92
2021/01/22 03:30:44;;;;;;;8.10;4.30;;;26.20;81.80;;;;;;6358536;22;20009;-88
2021/01/22 03:33:22;;;;;;;9.07;4.47;;;26.20;81.00;;;;;;6360527;22;20336;-90
2021/01/22 03:36:41;;;;;;;8.93;3.97;;;26.10;80.90;;;;;;6360340;22;20074;-90
2021/01/22 03:39:17;;;;;;;8.07;3.85;;;26.00;80.40;;;;;;6268923;22;20008;-91
2021/01/22 03:41:53;;;;;;;8.48;3.85;;;26.00;80.30;;;;;;6297992;22;19992;-88
2021/01/22 03:44:28;;;;;;;5.30;3.13;;;26.00;80.60;;;;;;6295725;22;20047;-89
2021/01/22 03:46:57;;;;;;;8.27;4.22;;;26.00;81.00;;;;;;6292596;22;20000;-92
2021/01/22 03:49:25;;;;;;;12.13;4.15;;;26.00;80.20;;;;;;6336839;22;20190;-91
2021/01/22 03:52:02;;;;;;;9.43;3.53;;;26.00;79.90;;;;;;6357131;22;20011;-91
2021/01/22 03:57:34;;;;;;;5.38;3.08;;;26.00;79.90;;;;;;6232134;23;20007;-91
2021/01/22 04:00:01;;;;;;;6.72;3.15;;;25.80;80.80;;;;;;6229197;23;19992;-91
2021/01/22 04:02:27;;;;;;;5.90;3.22;;;25.90;80.90;;;;;;6263204;22;20196;-93
2021/01/22 04:04:54;;;;;;;6.25;3.47;;;26.00;80.30;;;;;;6327122;22;20347;-92
2021/01/22 04:07:22;;;;;;;10.10;3.50;;;26.00;80.70;;;;;;6325821;22;19994;-90
2021/01/22 04:09:48;;;;;;;6.68;3.67;;;26.10;80.40;;;;;;6328381;22;19994;-92
2021/01/22 04:12:15;;;;;;;7.25;4.45;;;26.10;80.00;;;;;;6303741;22;19998;-91
2021/01/22 04:14:42;;;;;;;9.85;5.43;;;26.10;79.40;;;;;;6328023;22;19999;-89
2021/01/22 04:17:11;;;;;;;11.48;4.95;;;26.00;79.70;;;;;;6358591;22;20046;-91
2021/01/22 04:19:38;;;;;;;6.88;3.83;;;25.90;79.20;;;;;;6333207;22;19993;-93
2021/01/22 04:22:04;;;;;;;8.10;3.67;;;25.90;79.80;;;;;;6328935;22;20183;-91
2021/01/22 04:24:31;;;;;;;7.20;3.67;;;25.80;79.80;;;;;;6331194;22;20006;-91
2021/01/22 04:27:00;;;;;;;8.23;3.55;;;25.90;80.20;;;;;;6358430;22;20054;-92
2021/01/22 04:29:30;;;;;;;9.15;3.28;;;25.90;80.10;;;;;;6332573;22;19990;-89
2021/01/22 04:32:00;;;;;;;6.47;3.80;;;25.90;80.40;;;;;;6359404;22;20050;-92
2021/01/22 04:34:29;;;;;;;7.30;3.50;;;25.90;79.70;;;;;;6280087;22;20295;-92
2021/01/22 04:36:56;;;;;;;9.02;3.75;;;25.90;79.70;;;;;;6329816;22;19998;-91
2021/01/22 04:39:23;;;;;;;4.10;2.67;;;26.00;79.60;;;;;;6328091;22;19995;-90
2021/01/22 04:41:51;;;;;;;8.27;3.63;;;25.90;79.10;;;;;;6324636;22;20014;-93
2021/01/22 04:44:22;;;;;;;5.32;3.10;;;25.90;79.30;;;;;;6327582;22;20033;-92
2021/01/22 04:46:56;;;;;;;6.40;3.05;;;25.80;79.60;;;;;;6326951;22;20070;-92
2021/01/22 04:49:23;;;;;;;6.30;3.15;;;25.80;79.20;;;;;;6363215;22;20010;-89
2021/01/22 04:51:57;;;;;;;6.90;3.72;;;25.80;79.10;;;;;;6335654;22;20018;-92
2021/01/22 04:54:44;;;;;;;11.60;6.00;;;25.80;79.30;;;;;;6362887;22;20006;-89
2021/01/22 05:00:00;;;;;;;9.75;5.40;;;25.60;79.40;;;;;;6306509;22;19999;-91
2021/01/22 05:02:37;;;;;;;6.47;4.53;;;25.60;79.20;;;;;;6279997;22;20003;-92
2021/01/22 05:05:06;;;;;;;6.70;5.03;;;25.60;80.00;;;;;;6284259;22;20053;-89
2021/01/22 05:07:34;;;;;;;4.72;3.95;;;25.50;79.70;;;;;;6308131;22;20015;-92
2021/01/22 05:10:03;;;;;;;7.93;3.35;;;25.50;80.10;;;;;;6363889;22;19991;-92
2021/01/22 05:12:40;;;;;;;5.05;3.08;;;25.50;80.10;;;;;;6358660;22;20001;-88
2021/01/22 05:15:19;;;;;;;7.55;2.70;;;25.50;80.00;;;;;;6357693;22;20237;-88
2021/01/22 05:18:06;;;;;;;6.82;3.40;;;25.50;79.80;;;;;;6354516;22;20011;-91
2021/01/22 05:20:54;;;;;;;6.68;2.97;;;25.40;79.90;;;;;;6356603;22;20030;-92
2021/01/22 05:23:33;;;;;;;6.53;3.25;;;25.40;80.50;;;;;;6353968;22;19999;-92
2021/01/22 05:26:14;;;;;;;9.40;3.47;;;25.40;80.40;;;;;;6354878;22;19999;-93
2021/01/22 05:28:46;;;;;;;6.00;3.20;;;25.40;81.00;;;;;;6357941;22;20006;-92
2021/01/22 05:31:15;;;;;;;7.05;2.47;;;25.50;80.70;;;;;;6359806;22;19990;-92
2021/01/22 05:34:00;;;;;;;5.15;3.17;;;25.40;81.30;;;;;;6311721;22;20021;-90
2021/01/22 05:36:32;;;;;;;6.80;2.95;;;25.40;81.50;;;;;;6337510;22;20026;-90
2021/01/22 05:39:02;;;;;;;6.75;2.95;;;25.40;81.80;;;;;;6337933;22;20005;-89
2021/01/22 05:41:28;;;;;;;7.22;3.22;;;25.50;81.80;;;;;;6365647;22;20013;-91
2021/01/22 05:44:01;;;;;;;7.40;3.53;;;25.50;82.10;;;;;;6363629;22;20018;-93
2021/01/22 05:46:28;;;;;;;6.00;3.08;;;25.40;82.10;;;;;;6330234;22;20006;-91
2021/01/22 05:49:09;;;;;;;5.15;3.20;;;25.40;82.30;;;;;;6355077;22;20042;-91
2021/01/22 05:51:36;;;;;;;4.03;2.92;;;25.40;82.00;;;;;;6328478;22;20002;-94
2021/01/22 05:54:03;;;;;;;5.95;3.10;;;25.40;81.10;;;;;;6328306;22;20005;-95
2021/01/22 05:56:31;;;;;;;6.18;3.10;;;25.50;80.80;;;;;;6328874;22;20006;-91
2021/01/22 05:58:58;;;;;;;5.53;2.88;;;25.50;81.00;;;;;;6327458;22;20048;-90
2021/01/22 06:01:28;;;;;;;8.93;3.33;;;25.50;81.10;;;;;;6354451;22;19991;-92
2021/01/22 06:04:07;;;;;;;7.65;3.40;;;25.40;81.10;;;;;;6326814;22;20002;-94
2021/01/22 06:06:34;;;;;;;4.53;2.80;;;25.50;81.50;;;;;;6327197;22;20192;-92
2021/01/22 06:09:02;;;;;;;5.07;2.83;;;25.50;80.80;;;;;;6355916;22;20006;-90
2021/01/22 06:11:52;;;;;;;5.63;3.10;;;25.50;80.60;;;;;;6328652;22;19983;-89
2021/01/22 06:14:18;;;;;;;6.05;2.88;;;25.50;80.30;;;;;;6326453;22;20161;-93
2021/01/22 06:16:47;;;;;;;4.95;3.00;;;25.50;80.10;;;;;;6355805;22;20040;-91
2021/01/22 06:19:15;;;;;;;7.38;3.40;;;25.50;80.30;;;;;;6328771;22;20184;-93
2021/01/22 06:21:54;;;;;;;5.90;3.60;;;25.50;80.10;;;;;;6356884;22;20058;-91
2021/01/22 06:24:21;;;;;;;8.50;3.08;;;25.50;80.70;;;;;;6356382;22;20001;-91
2021/01/22 06:26:50;;;;;;;6.10;2.90;;;25.50;80.90;;;;;;6355498;22;19990;-91
2021/01/22 06:29:18;;;;;;;9.85;3.53;;;25.40;81.10;;;;;;6327014;22;20287;-91
2021/01/22 06:31:46;;;;;;;7.47;3.33;;;25.40;81.00;;;;;;6326926;22;20002;-92
2021/01/22 06:34:15;;;;;;;6.70;3.20;;;25.40;81.30;;;;;;6352793;22;20300;-94
2021/01/22 06:36:43;;;;;;;4.82;2.97;;;25.40;81.60;;;;;;6328030;22;19998;-89
2021/01/22 06:39:12;;;;;;;6.97;3.10;;;25.40;81.80;;;;;;6329557;22;20002;-91
2021/01/22 06:41:39;;;;;;;5.28;3.38;;;25.40;81.40;;;;;;6353957;22;20017;-90
2021/01/22 06:44:07;;;;;;;7.25;3.40;;;25.40;81.60;;;;;;6354363;22;19994;-92
2021/01/22 06:46:34;;;;;;;5.47;2.85;;;25.40;81.80;;;;;;6329259;22;20036;-92
2021/01/22 06:49:06;;;;;;;7.05;3.22;;;25.30;81.60;;;;;;6328312;22;20003;-91
2021/01/22 06:51:35;;;;;;;5.13;2.97;;;25.30;81.90;;;;;;6325550;22;19991;-90
2021/01/22 06:54:09;;;;;;;6.88;3.65;;;25.30;81.10;;;;;;6326844;22;19994;-90
2021/01/22 06:56:55;;;;;;;4.40;3.40;;;25.20;80.70;;;;;;6327923;22;19994;-90
2021/01/22 06:59:34;;;;;;;5.68;3.50;;;25.20;80.90;;;;;;6358264;22;19995;-90
2021/01/22 07:02:03;;;;;;;6.40;3.80;;;25.20;80.30;;;;;;6355916;22;20039;-90
2021/01/22 07:04:37;;;;;;;4.95;3.08;;;25.20;80.90;;;;;;6358627;22;19998;-89
2021/01/22 07:07:08;;;;;;;6.95;3.15;;;25.20;80.40;;;;;;6324746;22;20003;-93
2021/01/22 07:09:49;;;;;;;6.38;3.30;;;25.20;80.10;;;;;;6323929;22;19998;-92
2021/01/22 07:12:34;;;;;;;6.43;3.60;;;25.20;80.80;;;;;;6323409;22;20226;-92
2021/01/22 07:15:01;;;;;;;4.88;3.42;;;25.20;80.70;;;;;;6324089;22;20003;-92
2021/01/22 07:17:28;;;;;;;5.13;3.08;;;25.20;81.10;;;;;;6322804;22;20336;-92
2021/01/22 07:20:00;;;;;;;9.90;3.20;;;25.20;81.50;;;;;;6350529;22;20276;-92
2021/01/22 07:22:34;;;;;;;5.60;3.10;;;25.20;81.30;;;;;;6323530;22;20033;-92
2021/01/22 07:25:04;;;;;;;5.85;3.67;;;25.20;81.90;;;;;;6350899;22;20042;-92
2021/01/22 07:27:44;;;;;;;7.63;4.05;;;25.20;81.60;;;;;;6323035;22;19998;-92
2021/01/22 07:30:16;;;;;;;8.32;3.58;;;25.20;81.70;;;;;;6351098;22;20279;-91
2021/01/22 07:32:44;;;;;;;4.22;3.42;;;25.20;82.00;;;;;;6323445;22;20192;-91
2021/01/22 07:35:20;;;;;;;6.07;3.45;;;25.20;81.50;;;;;;6322600;22;20018;-91
2021/01/22 07:37:47;;;;;;;6.20;3.72;;;25.30;81.40;;;;;;6350256;22;20267;-92
2021/01/22 07:40:14;;;;;;;6.43;3.80;;;25.30;81.00;;;;;;6350031;22;19995;-92
2021/01/22 07:42:42;;;;;;;5.80;3.28;;;25.30;81.40;;;;;;6323342;22;19991;-92
2021/01/22 07:45:12;;;;;;;4.57;3.08;;;25.30;81.40;;;;;;6349337;22;20161;-91
2021/01/22 07:47:41;;;;;;;5.90;3.10;;;25.30;81.30;;;;;;6350781;22;20040;-91
2021/01/22 07:50:10;;;;;;;4.47;3.25;;;25.30;81.00;;;;;;6322501;22;20005;-92
2021/01/22 07:52:42;;;;;;;6.15;3.25;;;25.30;80.90;;;;;;6323628;22;19995;-91
2021/01/22 07:55:22;;;;;;;6.57;3.45;;;25.30;80.60;;;;;;6350557;22;19995;-91
2021/01/22 07:58:03;;;;;;;4.63;3.03;;;25.20;81.40;;;;;;6322784;22;19999;-92
2021/01/22 08:00:40;;;;;;;7.05;3.65;;;25.20;80.70;;;;;;6349914;22;19995;-92
2021/01/22 08:03:08;;;;;;;6.57;3.78;;;25.20;81.00;;;;;;6348743;22;20292;-92
2021/01/22 08:05:40;;;;;;;8.43;3.95;;;25.20;80.60;;;;;;6323773;22;19995;-91
2021/01/22 08:08:20;;;;;;;5.53;4.10;;;25.10;80.40;;;;;;6350882;22;19997;-91
2021/01/22 08:10:47;;;;;;;5.05;3.35;;;25.10;80.30;;;;;;6349887;22;20221;-92
2021/01/22 08:13:17;;;;;;;5.40;3.70;;;25.10;80.60;;;;;;6322448;22;19998;-92
2021/01/22 08:15:46;;;;;;;6.40;3.72;;;25.00;79.90;;;;;;6350023;22;19998;-91
2021/01/22 08:18:13;;;;;;;5.47;3.50;;;25.10;79.90;;;;;;6350270;22;20036;-91
2021/01/22 08:20:50;;;;;;;5.05;3.65;;;25.00;79.80;;;;;;6349976;22;20285;-92
2021/01/22 08:23:17;;;;;;;7.53;3.90;;;24.90;80.20;;;;;;6350602;22;19990;-91
2021/01/22 08:25:45;;;;;;;5.03;3.58;;;24.90;80.20;;;;;;6321944;22;19995;-91
2021/01/22 08:28:12;;;;;;;6.25;3.30;;;24.90;81.20;;;;;;6351018;22;19987;-91
2021/01/22 08:30:40;;;;;;;9.45;3.83;;;24.90;80.90;;;;;;6323510;22;19998;-90
2021/01/22 08:33:07;;;;;;;5.85;3.95;;;24.90;81.80;;;;;;6322674;22;20112;-92
2021/01/22 08:35:34;;;;;;;9.20;4.00;;;24.90;80.70;;;;;;6323270;22;20001;-92
2021/01/22 08:38:01;;;;;;;6.00;3.63;;;24.90;80.00;;;;;;6348679;22;20006;-92
2021/01/22 08:40:46;;;;;;;8.65;3.80;;;24.90;79.30;;;;;;6324845;22;20187;-88
2021/01/22 08:43:12;;;;;;;7.18;3.58;;;24.90;78.80;;;;;;6334198;22;20007;-89
2021/01/22 08:45:41;;;;;;;5.70;3.65;;;24.90;78.60;;;;;;6349687;22;20032;-87
2021/01/22 08:48:09;;;;;;;6.78;3.80;;;25.00;79.30;;;;;;6323373;22;20175;-89
2021/01/22 08:50:35;;;;;;;5.95;3.83;;;24.90;79.00;;;;;;6350310;22;20202;-91
2021/01/22 08:53:08;;;;;;;5.85;4.10;;;24.90;79.00;;;;;;6350473;22;20021;-90
2021/01/22 08:55:35;;;;;;;5.90;3.80;;;24.90;79.30;;;;;;6322694;22;20179;-92
2021/01/22 08:58:05;;;;;;;7.47;3.38;;;24.80;79.20;;;;;;6321637;22;19999;-91
2021/01/22 09:00:37;;;;;;;6.25;3.63;;;24.80;79.60;;;;;;6350389;22;20001;-92
2021/01/22 09:03:21;;;;;;;7.57;3.75;;;24.70;79.40;;;;;;6323868;22;20017;-92
2021/01/22 09:05:53;;;;;;;5.82;3.90;;;24.60;79.70;;;;;;6324555;22;19990;-92
2021/01/22 09:08:21;;;;;;;5.85;3.90;;;24.60;79.80;;;;;;6324604;22;20246;-91
2021/01/22 09:10:49;;;;;;;5.05;3.80;;;24.60;79.00;;;;;;6324807;22;20002;-92
2021/01/22 09:13:21;;;;;;;6.28;3.67;;;24.50;78.60;;;;;;6324743;22;20073;-91
2021/01/22 09:16:01;;;;;;;5.93;3.55;;;24.50;78.80;;;;;;6325861;22;20039;-90
2021/01/22 09:18:29;;;;;;;5.53;3.97;;;24.50;78.90;;;;;;6352073;22;20017;-92
2021/01/22 09:21:04;;;;;;;5.63;3.75;;;24.50;78.10;;;;;;6350608;22;20063;-91
2021/01/22 09:23:31;;;;;;;9.15;3.90;;;24.50;78.70;;;;;;6351824;22;20283;-88
2021/01/22 09:26:00;;;;;;;5.47;3.65;;;24.40;78.90;;;;;;6354418;22;19995;-89
2021/01/22 09:28:27;;;;;;;6.75;3.72;;;24.40;78.30;;;;;;6355411;22;19994;-89
2021/01/22 09:30:53;;;;;;;7.03;4.05;;;24.30;78.80;;;;;;6327819;22;20026;-90
2021/01/22 09:33:20;;;;;;;7.47;4.15;;;24.30;80.00;;;;;;6325860;22;20027;-89
2021/01/22 09:35:47;;;;;;;6.07;3.65;;;24.20;79.70;;;;;;6359077;22;19991;-90
2021/01/22 09:38:13;;;;;;;8.55;4.15;;;24.20;79.90;;;;;;6329783;22;20336;-90
2021/01/22 09:40:40;;;;;;;7.32;4.13;;;24.20;80.30;;;;;;6324462;22;20001;-91
2021/01/22 09:43:07;;;;;;;5.32;3.65;;;24.20;80.20;;;;;;6349728;22;20048;-92
2021/01/22 09:45:33;;;;;;;6.85;3.88;;;24.30;80.60;;;;;;6324455;22;20006;-91
2021/01/22 09:48:00;;;;;;;6.97;3.85;;;24.40;80.90;;;;;;6323835;22;19990;-91
2021/01/22 09:50:27;;;;;;;8.25;3.50;;;24.40;80.50;;;;;;6324644;22;20095;-91
2021/01/22 09:52:53;;;;;;;6.18;3.65;;;24.40;80.60;;;;;;6351557;22;19990;-91
2021/01/22 09:55:20;;;;;;;8.48;3.80;;;24.40;80.70;;;;;;6324090;22;20003;-91
2021/01/22 09:57:47;;;;;;;8.10;3.80;;;24.50;80.80;;;;;;6324085;22;20005;-88
2021/01/22 10:00:15;;;;;;;6.18;3.80;;;24.50;80.90;;;;;;6323453;22;20025;-88
2021/01/22 10:02:42;;;;;;;6.95;3.65;;;24.50;80.70;;;;;;6350928;22;19994;-88
2021/01/22 10:05:09;;;;;;;7.20;3.47;;;24.50;81.00;;;;;;6323364;22;20397;-86
2021/01/22 10:07:36;;;;;;;5.85;3.50;;;24.50;81.20;;;;;;6350710;22;19990;-89
2021/01/22 10:10:05;;;;;;;11.50;4.00;;;24.50;81.50;;;;;;6324034;22;20002;-92
2021/01/22 10:12:31;;;;;;;6.95;3.45;;;24.60;81.50;;;;;;6351928;22;19991;-90
2021/01/22 10:14:58;;;;;;;5.68;3.35;;;24.60;81.50;;;;;;6324723;22;20002;-91
2021/01/22 10:17:24;;;;;;;5.05;3.10;;;24.60;81.70;;;;;;6324680;22;20294;-90
2021/01/22 10:19:51;;;;;;;8.23;3.90;;;24.60;81.60;;;;;;6352341;22;20043;-91
2021/01/22 10:22:18;;;;;;;8.48;4.28;;;24.60;81.60;;;;;;6325104;22;20001;-90
2021/01/22 10:24:44;;;;;;;8.77;4.97;;;24.60;81.80;;;;;;6324424;22;19990;-89
2021/01/22 10:27:11;;;;;;;9.00;5.38;;;24.60;81.90;;;;;;6352685;22;19993;-90
2021/01/22 10:29:38;;;;;;;7.57;4.75;;;24.50;82.10;;;;;;6352319;22;19994;-90
2021/01/22 10:32:04;;;;;;;7.63;4.10;;;24.60;82.20;;;;;;6352054;22;19991;-90
2021/01/22 10:34:31;;;;;;;6.03;4.38;;;24.60;81.50;;;;;;6350550;22;20017;-91
2021/01/22 10:36:58;;;;;;;8.93;4.40;;;24.50;81.90;;;;;;6327387;22;20007;-90
2021/01/22 10:39:24;;;;;;;11.60;4.32;;;24.50;82.30;;;;;;6352290;22;19991;-91
2021/01/22 10:41:51;;;;;;;6.80;4.00;;;24.50;82.50;;;;;;6326789;22;20021;-89
2021/01/22 10:44:24;;;;;;;8.73;4.18;;;24.50;82.60;;;;;;6326004;22;19990;-89
2021/01/22 10:50:34;;;;;;;;;;;;;;;;;;;;;
2021/01/22 10:53:04;;;;;;;9.43;5.35;;;24.40;82.90;;;;;;6353314;22;20250;-92
2021/01/22 10:55:31;;;;;;;7.90;3.97;;;24.30;83.30;;;;;;6325433;22;20007;-93
2021/01/22 10:58:00;;;;;;;8.80;4.70;;;24.30;83.70;;;;;;6354953;22;19998;-94
2021/01/22 11:00:34;;;;;;;6.82;4.00;;;24.20;84.00;;;;;;6301861;22;20003;-94
2021/01/22 11:03:11;;;;;;;7.82;4.60;;;24.20;83.70;;;;;;6333475;22;20060;-94
2021/01/22 11:05:37;;;;;;;6.05;3.60;;;24.10;83.90;;;;;;6306339;22;20291;-93
2021/01/22 11:08:26;;;;;;;6.32;3.72;;;24.10;84.10;;;;;;6333347;22;20003;-96
2021/01/22 11:10:56;;;;;;;7.70;3.70;;;24.00;83.90;;;;;;6332432;22;20023;-95
2021/01/22 11:13:22;;;;;;;6.55;3.85;;;24.00;83.90;;;;;;6329885;22;19994;-93
2021/01/22 11:15:51;;;;;;;10.77;3.85;;;24.00;84.20;;;;;;6334016;22;20011;-93
2021/01/22 11:18:22;;;;;;;7.82;4.05;;;23.90;83.80;;;;;;6361477;22;20015;-93
2021/01/22 11:20:50;;;;;;;5.88;3.33;;;23.90;83.60;;;;;;6329588;22;20187;-94
2021/01/22 11:23:31;;;;;;;6.20;3.63;;;23.80;83.40;;;;;;6330813;22;19995;-93
2021/01/22 11:25:59;;;;;;;9.23;3.20;;;23.80;83.30;;;;;;6361532;22;20014;-93
2021/01/22 11:28:25;;;;;;;6.45;3.58;;;23.80;83.40;;;;;;6333666;22;20029;-91
2021/01/22 11:30:54;;;;;;;4.15;3.22;;;23.80;83.00;;;;;;6330998;22;20010;-92
2021/01/22 11:33:21;;;;;;;10.35;3.88;;;23.80;82.80;;;;;;6332379;22;20367;-90
2021/01/22 11:35:50;;;;;;;6.22;3.03;;;23.70;83.10;;;;;;6336526;22;19999;-90
2021/01/22 11:38:17;;;;;;;7.10;3.47;;;23.80;82.80;;;;;;6335486;22;19999;-90
2021/01/22 11:40:48;;;;;;;7.82;3.20;;;23.90;82.90;;;;;;6336283;22;20063;-91
2021/01/22 11:43:20;;;;;;;9.43;2.53;;;23.90;82.50;;;;;;6330721;22;19995;-94
2021/01/22 11:45:47;;;;;;;6.72;2.95;;;24.00;82.00;;;;;;6329957;22;19990;-92
2021/01/22 11:48:14;;;;;;;4.13;2.75;;;24.00;81.90;;;;;;6329997;22;20276;-91
2021/01/22 11:51:01;;;;;;;4.22;3.28;;;24.10;82.10;;;;;;6333186;22;20075;-91
2021/01/22 11:53:31;;;;;;;9.50;4.03;;;24.20;81.30;;;;;;6352058;22;20203;-91
2021/01/22 11:55:59;;;;;;;14.07;4.35;;;24.20;81.10;;;;;;6357687;22;19999;-92
2021/01/22 11:58:30;;;;;;;9.73;4.60;;;24.20;80.80;;;;;;6359860;22;19999;-94
2021/01/22 12:01:06;;;;;;;8.20;3.55;;;24.30;81.70;;;;;;6355205;22;20309;-93
2021/01/22 12:03:33;;;;;;;10.00;3.63;;;24.30;81.20;;;;;;6353079;22;19998;-95
2021/01/22 12:06:01;;;;;;;9.85;3.10;;;24.30;80.90;;;;;;6357183;22;19994;-91
2021/01/22 12:08:27;;;;;;;9.10;3.30;;;24.40;81.20;;;;;;6359356;22;20006;-92
2021/01/22 12:10:54;;;;;;;13.32;3.97;;;24.40;81.00;;;;;;6357349;22;20058;-91
2021/01/22 12:13:21;;;;;;;7.50;3.28;;;24.50;81.20;;;;;;6356383;22;20006;-89
2021/01/22 12:15:48;;;;;;;13.32;3.03;;;24.60;80.50;;;;;;6358026;22;19995;-89
2021/01/22 12:18:14;;;;;;;8.32;2.45;;;24.60;80.10;;;;;;6359354;22;19999;-90
2021/01/22 12:20:43;;;;;;;7.50;3.47;;;24.70;79.90;;;;;;6359766;22;20056;-92
2021/01/22 12:23:10;;;;;;;11.18;3.20;;;24.70;80.20;;;;;;6354683;22;20002;-90
2021/01/22 12:25:36;;;;;;;13.82;4.20;;;24.80;79.80;;;;;;6362446;22;20001;-89
2021/01/22 12:28:03;;;;;;;9.77;3.92;;;24.90;80.10;;;;;;6356323;22;20002;-92
2021/01/22 12:30:33;;;;;;;11.90;4.00;;;25.00;80.20;;;;;;6352916;22;20064;-91
2021/01/22 12:33:00;;;;;;;10.05;3.75;;;25.10;79.90;;;;;;6351720;22;20195;-91
2021/01/22 12:35:31;;;;;;;12.18;3.17;;;25.20;79.80;;;;;;6353330;22;20014;-90
2021/01/22 12:38:01;;;;;;;9.45;3.97;;;25.30;79.20;;;;;;6355018;22;19995;-90
2021/01/22 12:40:55;;;;;;;5.78;2.95;;;25.40;79.10;;;;;;6356761;22;20028;-89
2021/01/22 12:43:22;;;;;;;6.03;3.33;;;25.50;79.10;;;;;;6332551;22;19995;-94
2021/01/22 12:45:49;;;;;;;5.68;3.22;;;25.50;78.80;;;;;;6351598;22;19995;-92
2021/01/22 12:48:17;;;;;;;11.20;3.50;;;25.50;78.60;;;;;;6353013;22;19991;-91
2021/01/22 12:50:47;;;;;;;9.93;3.67;;;25.60;78.40;;;;;;6348059;22;20041;-91
2021/01/22 12:53:17;;;;;;;12.50;3.38;;;25.60;78.00;;;;;;6351023;22;20022;-91
2021/01/22 12:56:07;;;;;;;6.97;3.35;;;25.80;79.00;;;;;;6353785;22;19998;-91
2021/01/22 12:58:38;;;;;;;4.68;2.85;;;25.90;77.80;;;;;;6356528;22;19990;-93
2021/01/22 13:01:05;;;;;;;5.70;3.25;;;25.90;76.10;;;;;;6352840;22;20348;-92
2021/01/22 13:03:32;;;;;;;11.02;3.65;;;26.10;76.20;;;;;;6350854;22;20002;-91
2021/01/22 13:05:59;;;;;;;7.70;4.05;;;26.20;75.70;;;;;;6349310;22;20026;-92
2021/01/22 13:09:22;;;;;;;10.07;3.30;;;26.30;75.00;;;;;;6355666;22;19995;-91
2021/01/22 13:11:51;;;;;;;15.20;10.38;;;26.30;74.80;;;;;;6233232;22;20007;-94
2021/01/22 13:14:18;;;;;;;6.28;2.90;;;26.30;73.30;;;;;;6358514;22;20066;-93
2021/01/22 13:16:49;;;;;;;6.80;4.05;;;26.30;73.50;;;;;;6350884;22;19991;-91
2021/01/22 13:19:18;;;;;;;10.15;3.35;;;26.40;74.60;;;;;;6352449;22;20007;-93
2021/01/22 13:21:44;;;;;;;8.13;3.60;;;26.50;73.40;;;;;;6353951;22;20338;-93
2021/01/22 13:24:12;;;;;;;6.88;3.20;;;26.80;72.20;;;;;;6351425;22;20002;-92
2021/01/22 13:27:17;;;;;;;8.00;3.08;;;27.10;71.60;;;;;;6352994;22;20025;-95
2021/01/22 13:29:44;;;;;;;14.73;3.95;;;27.20;70.80;;;;;;6379860;22;20024;-92
2021/01/22 13:32:11;;;;;;;4.95;2.63;;;27.30;71.50;;;;;;6358371;22;19990;-93
2021/01/22 13:34:37;;;;;;;6.65;3.00;;;27.50;71.00;;;;;;6358589;22;19999;-93
2021/01/22 13:37:05;;;;;;;7.82;2.83;;;27.80;71.10;;;;;;6358661;22;19999;-94
2021/01/22 13:39:42;;;;;;;5.55;3.55;;;28.10;71.50;;;;;;6357953;22;20007;-94
2021/01/22 13:42:36;;;;;;;5.90;3.60;;;28.20;71.40;;;;;;6359848;22;20035;-94
2021/01/22 13:45:35;;;;;;;7.72;3.03;;;28.20;71.00;;;;;;6355318;22;20239;-93
2021/01/22 13:48:03;;;;;;;8.82;2.67;;;28.80;70.50;;;;;;6368986;22;20020;-94
2021/01/22 13:50:30;;;;;;;7.70;3.03;;;29.20;67.20;;;;;;6350499;22;20287;-91
2021/01/22 13:52:58;;;;;;;5.85;2.85;;;29.20;66.30;;;;;;6352019;22;19995;-92
2021/01/22 13:55:26;;;;;;;6.40;2.38;;;29.00;68.30;;;;;;6351675;22;20040;-94
2021/01/22 13:57:54;;;;;;;6.90;2.58;;;28.90;67.50;;;;;;6351627;22;20269;-91
2021/01/22 14:00:22;;;;;;;5.25;2.50;;;29.50;68.50;;;;;;6352052;22;20018;-94